createdAt,value
2022-10-13T00:01:42.018Z,15.20
2022-10-13T00:04:08.418Z,18.33
2022-10-13T00:06:34.928Z,15.65
2022-10-13T00:09:01.402Z,19.00
2022-10-13T00:11:29.648Z,12.68
2022-10-13T00:13:59.211Z,15.98
2022-10-13T00:16:26.939Z,12.87
2022-10-13T00:18:53.729Z,14.45
2022-10-13T00:21:23.377Z,13.65
2022-10-13T00:23:50.945Z,11.55
2022-10-13T00:26:18.207Z,12.55
2022-10-13T00:28:49.754Z,17.87
2022-10-13T00:31:26.991Z,18.50
2022-10-13T00:33:53.873Z,14.70
2022-10-13T00:36:22.352Z,12.30
2022-10-13T00:38:49.310Z,17.88
2022-10-13T00:41:16.143Z,17.43
2022-10-13T00:44:01.335Z,17.33
2022-10-13T00:46:35.725Z,16.60
2022-10-13T00:49:06.574Z,16.35
2022-10-13T00:51:38.243Z,14.93
2022-10-13T00:54:06.939Z,13.50
2022-10-13T00:56:34.835Z,16.90
2022-10-13T00:59:02.545Z,13.55
2022-10-13T01:01:29.033Z,17.83
2022-10-13T01:03:55.442Z,14.93
2022-10-13T01:06:23.877Z,14.90
2022-10-13T01:08:50.686Z,12.43
2022-10-13T01:11:43.708Z,18.40
2022-10-13T01:14:36.519Z,17.05
2022-10-13T01:17:24.575Z,14.75
2022-10-13T01:20:45.057Z,15.40
2022-10-13T01:23:14.421Z,17.17
2022-10-13T01:25:54.316Z,14.70
2022-10-13T01:28:39.516Z,14.80
2022-10-13T01:31:20.374Z,14.80
2022-10-13T01:34:04.122Z,16.23
2022-10-13T01:36:44.877Z,14.20
2022-10-13T01:39:33.822Z,16.50
2022-10-13T01:42:27.665Z,12.18
2022-10-13T01:45:00.203Z,15.15
2022-10-13T01:47:28.857Z,13.90
2022-10-13T01:49:57.197Z,15.77
2022-10-13T01:52:27.754Z,15.60
2022-10-13T01:54:54.580Z,13.38
2022-10-13T01:57:47.261Z,17.30
2022-10-13T02:00:17.820Z,16.40
2022-10-13T02:03:09.313Z,13.27
2022-10-13T02:05:38.915Z,17.02
2022-10-13T02:08:14.542Z,18.30
2022-10-13T02:10:48.759Z,17.35
2022-10-13T02:13:19.619Z,18.73
2022-10-13T02:15:49.274Z,13.85
2022-10-13T02:18:20.264Z,13.75
2022-10-13T02:20:47.766Z,15.75
2022-10-13T02:23:16.845Z,15.65
2022-10-13T02:25:44.394Z,14.57
2022-10-13T02:28:12.725Z,17.17
2022-10-13T02:30:41.226Z,13.23
2022-10-13T02:33:08.912Z,15.13
2022-10-13T02:35:35.705Z,12.80
2022-10-13T02:38:02.316Z,12.70
2022-10-13T02:40:28.781Z,15.55
2022-10-13T02:42:55.249Z,17.45
2022-10-13T02:45:21.811Z,12.75
2022-10-13T02:47:48.433Z,11.55
2022-10-13T02:50:14.949Z,15.57
2022-10-13T02:52:41.421Z,14.60
2022-10-13T02:55:07.955Z,13.98
2022-10-13T02:57:34.744Z,13.73
2022-10-13T03:00:01.212Z,14.45
2022-10-13T03:02:28.601Z,12.87
2022-10-13T03:04:55.044Z,12.82
2022-10-13T03:07:21.636Z,17.23
2022-10-13T03:09:48.342Z,17.40
2022-10-13T03:12:14.855Z,14.68
2022-10-13T03:14:41.319Z,14.27
2022-10-13T03:17:11.128Z,15.82
2022-10-13T03:19:39.981Z,14.32
2022-10-13T03:22:06.470Z,14.70
2022-10-13T03:24:32.931Z,15.50
2022-10-13T03:26:59.395Z,13.83
2022-10-13T03:29:25.928Z,13.38
2022-10-13T03:31:52.445Z,14.05
2022-10-13T03:34:20.293Z,14.30
2022-10-13T03:36:47.223Z,16.15
2022-10-13T03:39:13.821Z,13.50
2022-10-13T03:41:40.279Z,16.00
2022-10-13T03:44:07.591Z,15.95
2022-10-13T03:46:34.228Z,18.55
2022-10-13T03:49:00.848Z,19.88
2022-10-13T03:51:27.278Z,15.97
2022-10-13T03:53:54.047Z,16.23
2022-10-13T03:56:25.072Z,17.35
2022-10-13T03:58:55.319Z,19.67
2022-10-13T04:01:23.273Z,15.75
2022-10-13T04:03:51.896Z,15.63
2022-10-13T04:06:18.366Z,18.38
2022-10-13T04:08:44.922Z,14.77
2022-10-13T04:11:14.082Z,16.83
2022-10-13T04:13:41.478Z,13.68
2022-10-13T04:16:19.486Z,16.73
2022-10-13T04:18:50.678Z,14.10
2022-10-13T04:21:17.146Z,16.50
2022-10-13T04:23:43.564Z,15.23
2022-10-13T04:26:17.019Z,19.13
2022-10-13T04:28:43.885Z,14.13
2022-10-13T04:31:10.402Z,16.63
2022-10-13T04:33:36.844Z,20.27
2022-10-13T04:36:05.421Z,16.42
2022-10-13T04:38:31.894Z,19.20
2022-10-13T04:40:58.354Z,16.00
2022-10-13T04:43:24.833Z,18.55
2022-10-13T04:45:51.301Z,16.45
2022-10-13T04:48:17.697Z,17.10
2022-10-13T04:50:44.167Z,17.42
2022-10-13T04:53:13.227Z,15.00
2022-10-13T04:55:43.172Z,14.90
2022-10-13T04:58:09.577Z,13.88
2022-10-13T05:00:36.065Z,21.33
2022-10-13T05:03:02.492Z,16.35
2022-10-13T05:05:28.907Z,22.23
2022-10-13T05:07:55.350Z,18.02
2022-10-13T05:10:21.808Z,17.23
2022-10-13T05:12:48.233Z,18.02
2022-10-13T05:15:14.753Z,14.70
2022-10-13T05:17:41.208Z,15.37
2022-10-13T05:20:08.386Z,15.30
2022-10-13T05:22:34.816Z,17.15
2022-10-13T05:25:01.255Z,23.08
2022-10-13T05:27:27.776Z,14.35
2022-10-13T05:29:54.177Z,13.93
2022-10-13T05:32:20.927Z,18.40
2022-10-13T05:34:49.117Z,20.15
2022-10-13T05:37:17.084Z,15.45
2022-10-13T05:39:43.725Z,23.08
2022-10-13T05:42:10.934Z,25.03
2022-10-13T05:44:37.480Z,21.80
2022-10-13T05:47:07.525Z,18.30
2022-10-13T05:49:36.402Z,17.10
2022-10-13T05:52:08.852Z,19.73
2022-10-13T05:54:37.710Z,17.20
2022-10-13T05:57:15.020Z,18.80
2022-10-13T05:59:53.427Z,21.42
2022-10-13T06:02:23.281Z,19.85
2022-10-13T06:04:53.937Z,18.83
2022-10-13T06:07:20.513Z,18.53
2022-10-13T06:09:47.190Z,21.02
2022-10-13T06:12:13.684Z,17.45
2022-10-13T06:14:40.113Z,14.32
2022-10-13T06:17:07.703Z,15.05
2022-10-13T06:19:34.177Z,17.13
2022-10-13T06:22:03.633Z,17.95
2022-10-13T06:24:30.645Z,19.25
2022-10-13T06:26:57.370Z,18.92
2022-10-13T06:29:24.094Z,17.67
2022-10-13T06:31:50.526Z,17.90
2022-10-13T06:34:17.002Z,22.02
2022-10-13T06:36:43.436Z,16.58
2022-10-13T06:39:10.334Z,20.63
2022-10-13T06:41:36.882Z,17.48
2022-10-13T06:44:03.491Z,21.43
2022-10-13T06:46:29.983Z,24.13
2022-10-13T06:48:56.614Z,16.00
2022-10-13T06:51:23.022Z,20.55
2022-10-13T06:53:49.524Z,15.52
2022-10-13T06:56:15.934Z,16.50
2022-10-13T06:58:42.471Z,17.40
2022-10-13T07:01:12.635Z,22.17
2022-10-13T07:03:39.205Z,17.60
2022-10-13T07:06:06.417Z,17.75
2022-10-13T07:08:34.022Z,18.83
2022-10-13T07:11:11.635Z,21.63
2022-10-13T07:13:46.149Z,16.60
2022-10-13T07:16:13.386Z,17.00
2022-10-13T07:18:39.843Z,24.00
2022-10-13T07:21:06.805Z,20.17
2022-10-13T07:23:34.112Z,20.27
2022-10-13T07:26:01.741Z,17.02
2022-10-13T07:28:28.757Z,19.70
2022-10-13T07:30:55.525Z,19.48
2022-10-13T07:33:22.097Z,18.80
2022-10-13T07:35:48.617Z,21.58
2022-10-13T07:38:15.118Z,25.17
2022-10-13T07:40:41.622Z,21.42
2022-10-13T07:43:08.263Z,19.65
2022-10-13T07:45:34.820Z,25.53
2022-10-13T07:48:01.323Z,25.92
2022-10-13T07:50:27.830Z,22.83
2022-10-13T07:52:54.355Z,16.88
2022-10-13T07:55:20.791Z,19.73
2022-10-13T07:57:47.273Z,21.77
2022-10-13T08:00:13.948Z,20.02
2022-10-13T08:02:40.459Z,23.10
2022-10-13T08:05:07.170Z,22.85
2022-10-13T08:07:33.656Z,22.60
2022-10-13T08:10:00.203Z,16.83
2022-10-13T08:12:26.662Z,17.27
2022-10-13T08:14:53.137Z,20.33
2022-10-13T08:17:19.767Z,22.63
2022-10-13T08:19:46.397Z,21.55
2022-10-13T08:22:13.171Z,20.00
2022-10-13T08:24:39.602Z,19.10
2022-10-13T08:27:06.003Z,24.30
2022-10-13T08:29:32.470Z,19.23
2022-10-13T08:31:58.950Z,24.27
2022-10-13T08:34:25.748Z,18.43
2022-10-13T08:36:56.076Z,23.15
2022-10-13T08:39:23.731Z,20.25
2022-10-13T08:41:51.108Z,19.13
2022-10-13T08:45:15.799Z,20.58
2022-10-13T08:47:28.137Z,24.37
2022-10-13T08:50:02.406Z,20.50
2022-10-13T08:52:47.940Z,18.50
2022-10-13T08:55:45.245Z,20.48
2022-10-13T08:58:24.703Z,20.50
2022-10-13T09:01:23.772Z,20.77
2022-10-13T09:03:50.250Z,20.42
2022-10-13T09:06:28.769Z,18.63
2022-10-13T09:09:00.676Z,22.90
2022-10-13T09:11:33.891Z,18.23
2022-10-13T09:14:04.140Z,18.57
2022-10-13T09:16:42.306Z,15.45
2022-10-13T09:19:30.192Z,20.80
2022-10-13T09:21:58.771Z,21.60
2022-10-13T09:24:27.247Z,19.98
2022-10-13T09:27:17.764Z,16.37
2022-10-13T09:29:44.732Z,20.10
2022-10-13T09:32:17.006Z,16.27
2022-10-13T09:34:43.933Z,22.33
2022-10-13T09:37:24.929Z,15.65
2022-10-13T09:40:19.750Z,21.13
2022-10-13T09:42:53.533Z,18.13
2022-10-13T09:45:23.130Z,22.88
2022-10-13T09:47:53.185Z,19.55
2022-10-13T09:50:27.767Z,18.50
2022-10-13T09:53:12.094Z,25.50
2022-10-13T09:55:38.554Z,22.00
2022-10-13T09:58:12.322Z,21.58
2022-10-13T10:00:40.031Z,22.00
2022-10-13T10:03:15.975Z,21.13
2022-10-13T10:05:57.045Z,24.47
2022-10-13T10:09:04.553Z,24.20
2022-10-13T10:11:42.377Z,27.75
2022-10-13T10:14:26.285Z,21.23
2022-10-13T10:17:13.778Z,22.83
2022-10-13T10:20:01.350Z,18.63
2022-10-13T10:22:42.974Z,24.05
2022-10-13T10:25:29.899Z,23.52
2022-10-13T10:28:13.597Z,17.52
2022-10-13T10:31:26.789Z,20.35
2022-10-13T10:34:19.579Z,21.73
2022-10-13T10:36:56.269Z,21.77
2022-10-13T10:39:34.546Z,19.83
2022-10-13T10:42:21.242Z,24.73
2022-10-13T10:44:51.001Z,20.63
2022-10-13T10:47:51.523Z,18.80
2022-10-13T10:50:19.125Z,26.23
2022-10-13T10:52:59.406Z,20.88
2022-10-13T10:55:25.762Z,20.98
2022-10-13T10:58:24.274Z,19.23
2022-10-13T11:01:14.363Z,23.47
2022-10-13T11:04:22.032Z,19.88
2022-10-13T11:06:48.490Z,27.48
2022-10-13T11:09:15.009Z,19.10
2022-10-13T11:11:42.830Z,21.95
2022-10-13T11:14:09.209Z,26.50
2022-10-13T11:16:38.783Z,22.77
2022-10-13T11:19:08.419Z,21.27
2022-10-13T11:21:53.140Z,22.23
2022-10-13T11:24:34.940Z,17.52
2022-10-13T11:27:07.482Z,27.00
2022-10-13T11:29:49.180Z,20.08
2022-10-13T11:32:28.082Z,24.80
2022-10-13T11:35:19.692Z,19.80
2022-10-13T11:38:07.213Z,20.55
2022-10-13T11:40:45.039Z,20.27
2022-10-13T11:43:43.274Z,21.13
2022-10-13T11:46:24.757Z,20.90
2022-10-13T11:49:31.055Z,20.02
2022-10-13T11:52:42.600Z,15.00
2022-10-13T11:55:16.854Z,13.10
2022-10-13T11:57:43.394Z,18.77
2022-10-13T12:00:18.734Z,18.45
2022-10-13T12:02:50.752Z,17.80
2022-10-13T12:05:26.025Z,23.20
2022-10-13T12:07:55.624Z,18.77
2022-10-13T12:10:32.438Z,15.60
2022-10-13T12:12:59.534Z,18.48
2022-10-13T12:15:32.034Z,19.42
2022-10-13T12:17:58.694Z,15.82
2022-10-13T12:20:31.195Z,18.93
2022-10-13T12:22:57.727Z,15.48
2022-10-13T12:25:28.234Z,21.75
2022-10-13T12:27:57.790Z,18.17
2022-10-13T12:30:27.962Z,19.73
2022-10-13T12:32:57.300Z,19.93
2022-10-13T12:35:37.216Z,23.40
2022-10-13T12:38:12.256Z,23.50
2022-10-13T12:40:39.146Z,21.08
2022-10-13T12:43:06.255Z,19.33
2022-10-13T12:45:35.261Z,24.70
2022-10-13T12:48:01.773Z,25.48
2022-10-13T12:50:28.209Z,28.20
2022-10-13T12:53:08.541Z,18.90
2022-10-13T12:55:45.226Z,25.98
2022-10-13T12:58:20.537Z,21.47
2022-10-13T13:00:55.746Z,25.60
2022-10-13T13:03:27.967Z,24.45
2022-10-13T13:06:12.905Z,23.58
2022-10-13T13:08:41.834Z,20.42
2022-10-13T13:11:21.939Z,25.87
2022-10-13T13:13:48.674Z,24.88
2022-10-13T13:16:15.162Z,20.38
2022-10-13T13:18:43.662Z,20.30
2022-10-13T13:21:13.864Z,20.23
2022-10-13T13:23:40.749Z,23.33
2022-10-13T13:26:18.754Z,20.83
2022-10-13T13:28:53.896Z,22.60
2022-10-13T13:31:23.044Z,19.85
2022-10-13T13:33:50.270Z,27.50
2022-10-13T13:36:25.382Z,22.00
2022-10-13T13:38:53.136Z,21.52
2022-10-13T13:41:20.118Z,21.83
2022-10-13T13:43:46.907Z,20.13
2022-10-13T13:46:19.536Z,20.90
2022-10-13T13:48:46.077Z,21.67
2022-10-13T13:51:12.588Z,20.77
2022-10-13T13:53:39.130Z,16.33
2022-10-13T13:56:05.723Z,23.55
2022-10-13T13:58:32.195Z,25.05
2022-10-13T14:00:59.798Z,17.43
2022-10-13T14:03:26.288Z,22.67
2022-10-13T14:05:52.822Z,21.77
2022-10-13T14:08:19.565Z,17.77
2022-10-13T14:10:46.029Z,20.50
2022-10-13T14:13:12.461Z,17.70
2022-10-13T14:15:38.880Z,19.17
2022-10-13T14:18:05.377Z,17.70
2022-10-13T14:20:31.866Z,18.40
2022-10-13T14:22:58.290Z,23.60
2022-10-13T14:25:25.081Z,18.50
2022-10-13T14:27:51.613Z,18.92
2022-10-13T14:30:18.226Z,16.90
2022-10-13T14:32:44.674Z,19.67
2022-10-13T14:35:11.284Z,19.25
2022-10-13T14:37:37.976Z,15.90
2022-10-13T14:40:05.050Z,15.68
2022-10-13T14:42:31.531Z,20.75
2022-10-13T14:44:57.984Z,19.55
2022-10-13T14:47:24.679Z,21.80
2022-10-13T14:49:51.114Z,18.77
2022-10-13T14:52:17.615Z,15.55
2022-10-13T14:54:45.144Z,19.33
2022-10-13T14:57:15.693Z,21.52
2022-10-13T14:59:42.982Z,18.08
2022-10-13T15:02:11.532Z,21.40
2022-10-13T15:04:37.962Z,16.60
2022-10-13T15:07:04.859Z,19.30
2022-10-13T15:09:45.008Z,18.75
2022-10-13T15:12:18.327Z,21.85
2022-10-13T15:14:45.051Z,19.93
2022-10-13T15:17:11.491Z,20.98
2022-10-13T15:19:37.915Z,19.98
2022-10-13T15:22:04.408Z,18.77
2022-10-13T15:24:30.830Z,21.50
2022-10-13T15:26:57.261Z,16.27
2022-10-13T15:29:23.850Z,18.80
2022-10-13T15:31:50.259Z,17.92
2022-10-13T15:34:16.658Z,18.35
2022-10-13T15:36:43.101Z,18.73
2022-10-13T15:39:10.853Z,18.00
2022-10-13T15:41:37.291Z,15.75
2022-10-13T15:44:03.949Z,22.25
2022-10-13T15:46:31.542Z,18.38
2022-10-13T15:48:59.861Z,17.55
2022-10-13T15:51:27.077Z,19.30
2022-10-13T15:53:55.150Z,18.80
2022-10-13T15:56:21.979Z,23.38
2022-10-13T15:58:48.445Z,19.63
2022-10-13T16:01:15.150Z,21.08
2022-10-13T16:03:41.976Z,22.60
2022-10-13T16:06:11.266Z,20.70
2022-10-13T16:08:39.678Z,23.05
2022-10-13T16:11:14.782Z,22.23
2022-10-13T16:13:44.948Z,17.65
2022-10-13T16:16:11.610Z,19.30
2022-10-13T16:18:39.051Z,17.35
2022-10-13T16:21:18.771Z,21.60
2022-10-13T16:23:46.394Z,22.70
2022-10-13T16:26:12.931Z,21.90
2022-10-13T16:28:39.508Z,19.37
2022-10-13T16:31:10.234Z,20.85
2022-10-13T16:33:37.325Z,26.83
2022-10-13T16:36:05.691Z,19.70
2022-10-13T16:38:32.478Z,22.10
2022-10-13T16:40:58.909Z,21.83
2022-10-13T16:43:25.415Z,26.10
2022-10-13T16:46:00.101Z,28.85
2022-10-13T16:48:27.630Z,21.65
2022-10-13T16:50:54.111Z,22.23
2022-10-13T16:53:20.719Z,20.57
2022-10-13T16:55:47.235Z,24.23
2022-10-13T16:58:13.747Z,25.95
2022-10-13T17:00:40.469Z,26.40
2022-10-13T17:03:07.342Z,30.42
2022-10-13T17:05:34.242Z,28.20
2022-10-13T17:08:00.685Z,32.17
2022-10-13T17:10:27.282Z,33.10
2022-10-13T17:12:54.519Z,26.35
2022-10-13T17:15:21.064Z,31.73
2022-10-13T17:17:47.520Z,29.03
2022-10-13T17:20:14.028Z,27.13
2022-10-13T17:22:40.733Z,29.17
2022-10-13T17:25:07.809Z,31.10
2022-10-13T17:27:36.177Z,28.27
2022-10-13T17:30:04.276Z,26.93
2022-10-13T17:32:30.738Z,25.98
2022-10-13T17:34:57.217Z,29.58
2022-10-13T17:37:24.106Z,27.75
2022-10-13T17:39:50.636Z,28.73
2022-10-13T17:42:17.058Z,26.43
2022-10-13T17:44:43.521Z,28.63
2022-10-13T17:47:09.978Z,29.35
2022-10-13T17:49:37.068Z,30.33
2022-10-13T17:52:03.605Z,24.55
2022-10-13T17:54:30.114Z,26.60
2022-10-13T17:56:59.376Z,27.10
2022-10-13T17:59:25.864Z,23.80
2022-10-13T18:01:52.354Z,30.05
2022-10-13T18:04:19.491Z,20.60
2022-10-13T18:06:46.230Z,25.27
2022-10-13T18:09:18.635Z,18.70
2022-10-13T18:11:50.160Z,22.15
2022-10-13T18:14:23.383Z,23.67
2022-10-13T18:16:51.151Z,23.02
2022-10-13T18:19:18.054Z,22.30
2022-10-13T18:21:44.549Z,22.08
2022-10-13T18:24:11.728Z,23.95
2022-10-13T18:26:38.600Z,21.70
2022-10-13T18:29:07.334Z,20.00
2022-10-13T18:31:36.157Z,20.93
2022-10-13T18:34:06.421Z,20.10
2022-10-13T18:36:38.532Z,16.67
2022-10-13T18:39:26.395Z,17.83
2022-10-13T18:41:54.961Z,16.42
2022-10-13T18:44:23.164Z,15.23
2022-10-13T18:46:51.121Z,15.13
2022-10-13T18:49:19.173Z,14.98
2022-10-13T18:51:46.822Z,15.38
2022-10-13T18:54:13.551Z,15.52
2022-10-13T18:56:40.094Z,16.90
2022-10-13T18:59:08.352Z,18.25
2022-10-13T19:01:36.696Z,18.40
2022-10-13T19:04:04.465Z,19.23
2022-10-13T19:06:32.411Z,21.48
2022-10-13T19:09:04.832Z,22.13
2022-10-13T19:11:32.415Z,19.35
2022-10-13T19:14:00.603Z,20.15
2022-10-13T19:16:29.318Z,20.58
2022-10-13T19:18:56.301Z,18.00
2022-10-13T19:21:24.443Z,20.27
2022-10-13T19:23:51.607Z,22.70
2022-10-13T19:26:21.627Z,17.67
2022-10-13T19:28:48.203Z,20.05
2022-10-13T19:31:21.257Z,22.58
2022-10-13T19:33:49.852Z,19.23
2022-10-13T19:36:38.832Z,19.13
2022-10-13T19:39:11.557Z,21.42
2022-10-13T19:41:38.310Z,18.60
2022-10-13T19:44:04.972Z,16.75
2022-10-13T19:46:32.724Z,16.43
2022-10-13T19:48:59.229Z,20.73
2022-10-13T19:51:25.683Z,17.23
2022-10-13T19:53:52.127Z,17.55
2022-10-13T19:56:21.289Z,19.50
2022-10-13T19:58:47.879Z,15.17
2022-10-13T20:01:14.435Z,17.02
2022-10-13T20:03:40.896Z,18.65
2022-10-13T20:06:07.430Z,22.38
2022-10-13T20:08:33.954Z,18.63
2022-10-13T20:11:06.133Z,18.17
2022-10-13T20:13:32.552Z,20.88
2022-10-13T20:15:58.969Z,23.85
2022-10-13T20:18:25.389Z,19.33
2022-10-13T20:20:51.882Z,28.50
2022-10-13T20:23:18.290Z,21.90
2022-10-13T20:25:44.994Z,23.15
2022-10-13T20:28:11.431Z,27.30
2022-10-13T20:30:39.666Z,27.80
2022-10-13T20:33:06.189Z,26.05
2022-10-13T20:35:32.696Z,29.23
2022-10-13T20:37:59.153Z,33.85
2022-10-13T20:40:25.693Z,31.50
2022-10-13T20:42:52.754Z,31.33
2022-10-13T20:45:19.434Z,33.45
2022-10-13T20:47:46.908Z,32.10
2022-10-13T20:50:13.952Z,32.63
2022-10-13T20:52:40.361Z,31.67
2022-10-13T20:55:07.095Z,34.70
2022-10-13T20:57:33.583Z,34.35
2022-10-13T21:00:00.044Z,34.23
2022-10-13T21:02:26.514Z,30.08
2022-10-13T21:04:53.000Z,27.73
2022-10-13T21:07:19.806Z,26.73
2022-10-13T21:09:50.203Z,23.38
2022-10-13T21:12:19.289Z,29.80
2022-10-13T21:14:45.747Z,29.77
2022-10-13T21:17:12.216Z,30.23
2022-10-13T21:19:39.835Z,30.25
2022-10-13T21:22:06.264Z,27.25
2022-10-13T21:24:32.777Z,28.37
2022-10-13T21:26:59.202Z,36.45
2022-10-13T21:29:25.683Z,26.55
2022-10-13T21:31:52.557Z,99.00
2022-10-13T21:34:19.062Z,47.53
2022-10-13T21:36:45.714Z,42.37
2022-10-13T21:39:12.251Z,61.58
2022-10-13T21:41:38.939Z,50.63
2022-10-13T21:44:05.353Z,45.22
2022-10-13T21:46:34.093Z,46.65
2022-10-13T21:49:04.623Z,50.13
2022-10-13T21:51:34.399Z,49.97
2022-10-13T21:54:03.641Z,46.53
2022-10-13T21:56:30.814Z,47.90
2022-10-13T21:58:57.330Z,41.22
2022-10-13T22:01:24.469Z,41.07
2022-10-13T22:03:56.724Z,60.05
2022-10-13T22:06:24.225Z,58.85
2022-10-13T22:08:52.596Z,92.22
2022-10-13T22:11:20.193Z,68.85
2022-10-13T22:13:46.781Z,76.03
2022-10-13T22:16:16.759Z,52.35
2022-10-13T22:18:43.838Z,50.05
2022-10-13T22:21:20.207Z,40.55
2022-10-13T22:23:47.717Z,58.55
2022-10-13T22:26:15.730Z,70.90
2022-10-13T22:28:42.745Z,56.63
2022-10-13T22:31:11.652Z,48.78
2022-10-13T22:33:41.534Z,39.28
2022-10-13T22:36:16.047Z,63.75
2022-10-13T22:38:43.779Z,26.20
2022-10-13T22:41:11.010Z,37.13
2022-10-13T22:43:37.589Z,50.78
2022-10-13T22:46:04.365Z,37.53
2022-10-13T22:48:31.042Z,39.42
2022-10-13T22:50:57.692Z,54.07
2022-10-13T22:53:24.169Z,47.67
2022-10-13T22:55:50.615Z,51.95
2022-10-13T22:58:17.094Z,43.13
2022-10-13T23:00:43.508Z,100.03
2022-10-13T23:03:13.278Z,58.77
2022-10-13T23:05:45.978Z,27.25
2022-10-13T23:08:12.538Z,36.13
2022-10-13T23:10:39.026Z,66.85
2022-10-13T23:13:06.226Z,49.88
2022-10-13T23:15:32.917Z,68.43
2022-10-13T23:17:59.349Z,47.17
2022-10-13T23:20:25.819Z,31.08
2022-10-13T23:22:52.300Z,30.75
2022-10-13T23:25:18.769Z,26.13
2022-10-13T23:27:45.200Z,44.70
2022-10-13T23:30:12.378Z,43.10
2022-10-13T23:32:38.875Z,35.58
2022-10-13T23:35:05.703Z,43.90
2022-10-13T23:37:32.414Z,21.17
2022-10-13T23:39:58.899Z,47.87
2022-10-13T23:42:25.329Z,28.17
2022-10-13T23:44:51.769Z,38.95
2022-10-13T23:47:18.418Z,37.42
2022-10-13T23:49:45.540Z,52.83
2022-10-13T23:52:12.012Z,26.93
2022-10-13T23:54:38.445Z,62.38
2022-10-13T23:57:04.903Z,48.75
2022-10-13T23:59:31.354Z,51.75
